Humidity-temperature Sensor

Selected Measurement Type: Relative Humidity

 
Relative Humidity [%]     6 entries per hour
Showing data from 11/16/2021 (00:00:00 Z) to 11/15/2021 (00:01:00 Z)
Previous Next [ Day | 3-Days | 7-Days ]
First Last
Prev [ Day | 3-Days | 7-Days ] Next
First Last

Start Time:     :
End Time:     :     
Time (in GMT) :00 :50 :40 :30 :20 :10
Previous Next [ Day | 3-Days | 7-Days ]
First Last
Prev [ Day | 3-Days | 7-Days ] Next
First Last


123 => good data
MM => data is determined as missing
-- => data not received/configured
Back to Top Back to Top
11/16/2021 00:00 to 23:10 83.10 83.22 83.34 83.10 82.98 82.57
11/15/2021 23:00 to 22:10 82.61 83.00 82.65 82.37 81.48 81.30
11/15/2021 22:00 to 21:10 80.61 81.52 81.56 82.69 82.90 82.96
11/15/2021 21:00 to 20:10 83.12 82.65 82.43 81.38 80.86 79.46
11/15/2021 20:00 to 19:10 79.14 79.12 79.24 79.66 79.54 80.01
11/15/2021 19:00 to 18:10 80.37 80.03 79.06 78.69 77.06 77.75
11/15/2021 18:00 to 17:10 78.33 76.25 74.49 74.05 76.49 79.26
11/15/2021 17:00 to 16:10 80.25 79.32 78.45 77.10 77.14 77.89
11/15/2021 16:00 to 15:10 78.27 77.38 77.58 76.19 75.38 75.46
11/15/2021 15:00 to 14:10 80.75 83.06 83.18 81.64 80.75 80.59
11/15/2021 14:00 to 13:10 82.07 83.80 84.81 84.09 84.41 83.93
11/15/2021 13:00 to 12:10 84.37 84.53 84.77 84.23 83.68 83.02
11/15/2021 12:00 to 11:10 81.66 82.79 83.99 85.70 85.08 84.13
11/15/2021 11:00 to 10:10 85.64 84.53 84.57 84.41 84.05 83.28
11/15/2021 10:00 to 9:10 83.16 83.24 84.01 83.72 84.11 84.35
11/15/2021 09:00 to 8:10 84.31 84.37 85.40 84.92 85.04 85.16
11/15/2021 08:00 to 7:10 84.79 84.25 84.33 84.37 84.90 84.31
11/15/2021 07:00 to 6:10 83.95 83.85 84.11 83.58 83.04 83.22
11/15/2021 06:00 to 5:10 82.73 82.27 82.31 81.83 80.96 80.57
11/15/2021 05:00 to 4:10 80.03 80.57 80.15 80.73 80.17 79.81
11/15/2021 04:00 to 3:10 81.42 81.04 81.42 80.69 81.56 82.67
11/15/2021 03:00 to 2:10 84.35 85.08 83.56 82.88 81.44 80.90
11/15/2021 02:00 to 1:10 79.97 79.91 79.72 80.13 79.85 80.01
11/15/2021 01:00 to 0:10 79.95 78.76 77.64 77.16 76.29 76.03